^^
Saratoga-Weather Station Historical Data
Daily Summary for March 9, 2020 Units:  Both    English   Metric
Daily Weekly Monthly Yearly Custom
  High: Low: Average:
Temperature: 60.3 °F /  15.7 °C 46 °F /  7.8 °C 51.3 °F /  10.7 °C
Dew Point: 54.5 °F /  12.5 °C 45.1 °F /  7.3 °C 49.1 °F /  9.5 °C
Humidity: 98% 79% 93%
Wind Speed: 2.9mph /  4.7km/h - 0.1mph /  0.2km/h
Wind Gust: 6mph /  9.7km/h - -
Wind- - East
Pressure: 30.2 in /  1023.4 hPa 30.2 in /  1021.7 hPa -
Precipitation: 0.01 in /  0.2 mm    
Historical Graphs
 
 
Tabular Data for March 9, 2020
Time Temperature Dew Point Pressure Wind Wind Speed Wind Gust Humidity Rainfall Rate (Hourly) solar
00:00 47.1 °F /  8.4 °C 46 °F /  7.8 °C 30.2in /  1023.0hPa Calm     96% 0in /  0.0mm 0 W/m2
00:05 47.1 °F /  8.4 °C 46 °F /  7.8 °C 30.2in /  1023.0hPa Calm     96% 0in /  0.0mm 0 W/m2
00:10 47.3 °F /  8.5 °C 46.2 °F /  7.9 °C 30.2in /  1023.0hPa Calm     96% 0in /  0.0mm 0 W/m2
00:15 47.3 °F /  8.5 °C 46.2 °F /  7.9 °C 30.2in /  1023.0hPa Calm     96% 0in /  0.0mm 0 W/m2
00:20 47.5 °F /  8.6 °C 46.4 °F /  8 °C 30.2in /  1023.0hPa Calm     96% 0in /  0.0mm 0 W/m2
00:25 47.7 °F /  8.7 °C 46.9 °F /  8.3 °C 30.2in /  1023.0hPa Calm     97% 0in /  0.0mm 0 W/m2
00:30 47.7 °F /  8.7 °C 46.9 °F /  8.3 °C 30.2in /  1023.0hPa Calm     97% 0in /  0.0mm 0 W/m2
00:35 47.8 °F /  8.8 °C 46.9 °F /  8.3 °C 30.2in /  1023.0hPa Calm     97% 0in /  0.0mm 0 W/m2
00:40 47.8 °F /  8.8 °C 46.9 °F /  8.3 °C 30.2in /  1023.0hPa Calm     97% 0in /  0.0mm 0 W/m2
00:45 47.8 °F /  8.8 °C 46.9 °F /  8.3 °C 30.2in /  1023.0hPa Calm     97% 0in /  0.0mm 0 W/m2
00:50 47.8 °F /  8.8 °C 46.9 °F /  8.3 °C 30.2in /  1023.0hPa Calm     97% 0in /  0.0mm 0 W/m2
00:55 47.8 °F /  8.8 °C 46.9 °F /  8.3 °C 30.2in /  1023.0hPa Calm     97% 0in /  0.0mm 0 W/m2
01:00 47.8 °F /  8.8 °C 46.9 °F /  8.3 °C 30.2in /  1022.7hPa Calm     97% 0in /  0.0mm 0 W/m2
01:05 47.8 °F /  8.8 °C 46.9 °F /  8.3 °C 30.2in /  1022.7hPa Calm     97% 0in /  0.0mm 0 W/m2
01:10 48 °F /  8.9 °C 47.1 °F /  8.4 °C 30.2in /  1022.7hPa Calm     97% 0in /  0.0mm 0 W/m2
01:15 48 °F /  8.9 °C 47.1 °F /  8.4 °C 30.2in /  1022.7hPa Calm     97% 0in /  0.0mm 0 W/m2
01:20 48 °F /  8.9 °C 47.1 °F /  8.4 °C 30.2in /  1022.7hPa Calm     97% 0in /  0.0mm 0 W/m2
01:25 48 °F /  8.9 °C 46.9 °F /  8.3 °C 30.2in /  1022.7hPa Calm     96% 0in /  0.0mm 0 W/m2
01:30 47.8 °F /  8.8 °C 46.8 °F /  8.2 °C 30.2in /  1022.7hPa Calm     96% 0in /  0.0mm 0 W/m2
01:35 47.8 °F /  8.8 °C 46.8 °F /  8.2 °C 30.2in /  1022.7hPa Calm     96% 0in /  0.0mm 0 W/m2
01:40 47.7 °F /  8.7 °C 46.6 °F /  8.1 °C 30.2in /  1022.4hPa Calm     96% 0in /  0.0mm 0 W/m2
01:45 47.5 °F /  8.6 °C 46.4 °F /  8 °C 30.2in /  1022.4hPa Calm     96% 0in /  0.0mm 0 W/m2
01:50 47.5 °F /  8.6 °C 46.4 °F /  8 °C 30.2in /  1022.4hPa Calm     96% 0in /  0.0mm 0 W/m2
01:55 47.5 °F /  8.6 °C 46.4 °F /  8 °C 30.2in /  1022.4hPa Calm     96% 0in /  0.0mm 0 W/m2
02:00 47.5 °F /  8.6 °C 46.4 °F /  8 °C 30.2in /  1022.4hPa Calm     96% 0in /  0.0mm 0 W/m2
02:05 47.5 °F /  8.6 °C 46.4 °F /  8 °C 30.2in /  1022.4hPa Calm     96% 0in /  0.0mm 0 W/m2
02:10 47.5 °F /  8.6 °C 46.4 °F /  8 °C 30.2in /  1022.4hPa Calm     96% 0in /  0.0mm 0 W/m2
02:15 47.5 °F /  8.6 °C 46.4 °F /  8 °C 30.2in /  1022.4hPa Calm     96% 0in /  0.0mm 0 W/m2
02:20 47.5 °F /  8.6 °C 46.4 °F /  8 °C 30.2in /  1022.4hPa Calm     96% 0in /  0.0mm 0 W/m2
02:25 47.7 °F /  8.7 °C 46.9 °F /  8.3 °C 30.2in /  1022.7hPa NNW 0.9mph /  1.4km/h 2mph /  3.2km/h 97% 0in /  0.0mm 0 W/m2
02:30 48.2 °F /  9 °C 47.3 °F /  8.5 °C 30.2in /  1022.7hPa Calm     97% 0in /  0.0mm 0 W/m2
02:35 48.4 °F /  9.1 °C 47.5 °F /  8.6 °C 30.2in /  1022.4hPa Calm   1mph /  1.6km/h 97% 0in /  0.0mm 0 W/m2
02:40 48.4 °F /  9.1 °C 47.5 °F /  8.6 °C 30.2in /  1022.7hPa ENE 0.9mph /  1.4km/h 2mph /  3.2km/h 97% 0in /  0.0mm 0 W/m2
02:45 47.8 °F /  8.8 °C 46.9 °F /  8.3 °C 30.2in /  1022.7hPa East 2mph /  3.2km/h 3mph /  4.8km/h 97% 0in /  0.0mm 0 W/m2
02:50 47.5 °F /  8.6 °C 46.4 °F /  8 °C 30.2in /  1022.7hPa Calm   1mph /  1.6km/h 96% 0in /  0.0mm 0 W/m2
02:55 46.9 °F /  8.3 °C 45.9 °F /  7.7 °C 30.2in /  1022.4hPa Calm     96% 0in /  0.0mm 0 W/m2
03:00 46.8 °F /  8.2 °C 45.7 °F /  7.6 °C 30.2in /  1022.4hPa Calm     96% 0in /  0.0mm 0 W/m2
03:05 46.6 °F /  8.1 °C 45.5 °F /  7.5 °C 30.2in /  1022.4hPa Calm     96% 0in /  0.0mm 0 W/m2
03:10 46.6 °F /  8.1 °C 45.5 °F /  7.5 °C 30.2in /  1022.4hPa Calm     96% 0in /  0.0mm 0 W/m2
03:15 46.2 °F /  7.9 °C 45.1 °F /  7.3 °C 30.2in /  1022.4hPa Calm     96% 0in /  0.0mm 0 W/m2
03:20 46.2 °F /  7.9 °C 45.5 °F /  7.5 °C 30.2in /  1022.4hPa Calm     97% 0in /  0.0mm 0 W/m2
03:25 46.2 °F /  7.9 °C 45.1 °F /  7.3 °C 30.2in /  1022.4hPa Calm   1mph /  1.6km/h 96% 0in /  0.0mm 0 W/m2
03:30 46.2 °F /  7.9 °C 45.1 °F /  7.3 °C 30.2in /  1022.4hPa Calm     96% 0in /  0.0mm 0 W/m2
03:35 46.2 °F /  7.9 °C 45.5 °F /  7.5 °C 30.2in /  1022.4hPa Calm   1mph /  1.6km/h 97% 0in /  0.0mm 0 W/m2
03:40 46.2 °F /  7.9 °C 45.5 °F /  7.5 °C 30.2in /  1022.4hPa Calm     97% 0in /  0.0mm 0 W/m2
03:45 46.4 °F /  8 °C 45.7 °F /  7.6 °C 30.2in /  1022.4hPa Calm     97% 0in /  0.0mm 0 W/m2
03:50 46.4 °F /  8 °C 45.7 °F /  7.6 °C 30.2in /  1022.4hPa East 0.9mph /  1.4km/h 1mph /  1.6km/h 97% 0in /  0.0mm 0 W/m2
03:55 46.6 °F /  8.1 °C 45.9 °F /  7.7 °C 30.2in /  1022.4hPa Calm     97% 0in /  0.0mm 0 W/m2
04:00 46.6 °F /  8.1 °C 45.9 °F /  7.7 °C 30.2in /  1022.4hPa Calm     97% 0in /  0.0mm 0 W/m2
04:05 46.8 °F /  8.2 °C 46 °F /  7.8 °C 30.2in /  1022.4hPa Calm     97% 0in /  0.0mm 0 W/m2
04:10 46.9 °F /  8.3 °C 46.2 °F /  7.9 °C 30.2in /  1022.0hPa Calm   1mph /  1.6km/h 97% 0in /  0.0mm 0 W/m2
04:15 46.9 °F /  8.3 °C 46.2 °F /  7.9 °C 30.2in /  1022.0hPa Calm     97% 0.01in /  0.2mm 0 W/m2
04:20 46.9 °F /  8.3 °C 46.2 °F /  7.9 °C 30.2in /  1022.0hPa East 0.9mph /  1.4km/h 1mph /  1.6km/h 97% 0.01in /  0.2mm 0 W/m2
04:25 47.1 °F /  8.4 °C 46.4 °F /  8 °C 30.2in /  1022.0hPa Calm     97% 0.01in /  0.2mm 0 W/m2
04:30 47.1 °F /  8.4 °C 46.4 °F /  8 °C 30.2in /  1022.0hPa Calm     97% 0.01in /  0.2mm 0 W/m2
04:35 47.1 °F /  8.4 °C 46.4 °F /  8 °C 30.2in /  1022.0hPa Calm     97% 0.01in /  0.2mm 0 W/m2
04:40 47.3 °F /  8.5 °C 46.6 °F /  8.1 °C 30.2in /  1022.0hPa Calm     97% 0.01in /  0.2mm 0 W/m2
04:45 47.5 °F /  8.6 °C 46.8 °F /  8.2 °C 30.2in /  1022.0hPa Calm     97% 0.01in /  0.2mm 0 W/m2
04:50 47.7 °F /  8.7 °C 46.9 °F /  8.3 °C 30.2in /  1022.0hPa Calm     97% 0.01in /  0.2mm 0 W/m2
04:55 48 °F /  8.9 °C 47.1 °F /  8.4 °C 30.2in /  1022.0hPa Calm     97% 0.01in /  0.2mm 0 W/m2
05:00 48.6 °F /  9.2 °C 47.7 °F /  8.7 °C 30.2in /  1022.0hPa Calm     97% 0.01in /  0.2mm 0 W/m2
05:05 48.7 °F /  9.3 °C 47.8 °F /  8.8 °C 30.2in /  1022.4hPa Calm     97% 0.01in /  0.2mm 0 W/m2
05:10 48.9 °F /  9.4 °C 48 °F /  8.9 °C 30.2in /  1022.4hPa Calm     97% 0.01in /  0.2mm 0 W/m2
05:15 49.1 °F /  9.5 °C 48.2 °F /  9 °C 30.2in /  1022.4hPa Calm     97% 0in /  0.0mm 0 W/m2
05:20 48.9 °F /  9.4 °C 48 °F /  8.9 °C 30.2in /  1022.4hPa Calm     97% 0in /  0.0mm 0 W/m2
05:25 48.7 °F /  9.3 °C 47.8 °F /  8.8 °C 30.2in /  1022.4hPa Calm     97% 0in /  0.0mm 0 W/m2
05:30 48.6 °F /  9.2 °C 47.7 °F /  8.7 °C 30.2in /  1022.4hPa Calm     97% 0in /  0.0mm 0 W/m2
05:35 48.4 °F /  9.1 °C 47.5 °F /  8.6 °C 30.2in /  1022.4hPa Calm     97% 0in /  0.0mm 0 W/m2
05:40 48.4 °F /  9.1 °C 47.5 °F /  8.6 °C 30.2in /  1022.4hPa Calm     97% 0in /  0.0mm 0 W/m2
05:45 48.6 °F /  9.2 °C 47.7 °F /  8.7 °C 30.2in /  1022.4hPa Calm     97% 0in /  0.0mm 0 W/m2
05:50 48.7 °F /  9.3 °C 47.8 °F /  8.8 °C 30.2in /  1022.4hPa Calm     97% 0in /  0.0mm 0 W/m2
05:55 48.7 °F /  9.3 °C 47.8 °F /  8.8 °C 30.2in /  1022.4hPa Calm     97% 0in /  0.0mm 0 W/m2
06:00 48.6 °F /  9.2 °C 47.7 °F /  8.7 °C 30.2in /  1022.4hPa Calm     97% 0in /  0.0mm 0 W/m2
06:05 48.4 °F /  9.1 °C 47.5 °F /  8.6 °C 30.2in /  1022.4hPa Calm     97% 0in /  0.0mm 0 W/m2
06:10 48 °F /  8.9 °C 47.1 °F /  8.4 °C 30.2in /  1022.4hPa Calm     97% 0in /  0.0mm 0 W/m2
06:16 47.7 °F /  8.7 °C 46.9 °F /  8.3 °C 30.2in /  1022.4hPa Calm     97% 0in /  0.0mm 0 W/m2
06:21 47.5 °F /  8.6 °C 46.8 °F /  8.2 °C 30.2in /  1022.4hPa Calm     97% 0in /  0.0mm 0 W/m2
06:26 47.3 °F /  8.5 °C 46.6 °F /  8.1 °C 30.2in /  1022.4hPa Calm     97% 0in /  0.0mm 0 W/m2
06:31 47.1 °F /  8.4 °C 46.4 °F /  8 °C 30.2in /  1022.4hPa Calm     97% 0in /  0.0mm 0 W/m2
06:36 46.9 °F /  8.3 °C 46.2 °F /  7.9 °C 30.2in /  1022.0hPa Calm     97% 0in /  0.0mm 0 W/m2
06:41 46.9 °F /  8.3 °C 46.2 °F /  7.9 °C 30.2in /  1022.0hPa Calm     97% 0in /  0.0mm 0 W/m2
06:46 46.9 °F /  8.3 °C 46.2 °F /  7.9 °C 30.2in /  1022.0hPa Calm     97% 0in /  0.0mm 0 W/m2
06:51 46.8 °F /  8.2 °C 46 °F /  7.8 °C 30.2in /  1022.4hPa Calm     97% 0in /  0.0mm 0 W/m2
06:56 46.8 °F /  8.2 °C 46 °F /  7.8 °C 30.2in /  1022.4hPa Calm     97% 0in /  0.0mm 0 W/m2
07:01 46.6 °F /  8.1 °C 45.9 °F /  7.7 °C 30.2in /  1022.4hPa Calm     97% 0in /  0.0mm 0 W/m2
07:06 46.6 °F /  8.1 °C 45.9 °F /  7.7 °C 30.2in /  1022.4hPa Calm     97% 0in /  0.0mm 0 W/m2
07:11 46.6 °F /  8.1 °C 45.9 °F /  7.7 °C 30.2in /  1022.4hPa Calm     97% 0in /  0.0mm 0 W/m2
07:16 46.4 °F /  8 °C 45.7 °F /  7.6 °C 30.2in /  1022.4hPa Calm     97% 0in /  0.0mm 0 W/m2
07:21 46.4 °F /  8 °C 45.7 °F /  7.6 °C 30.2in /  1022.4hPa Calm     97% 0in /  0.0mm 0 W/m2
07:26 46.2 °F /  7.9 °C 45.5 °F /  7.5 °C 30.2in /  1022.4hPa Calm     97% 0in /  0.0mm 0 W/m2
07:31 46 °F /  7.8 °C 45.3 °F /  7.4 °C 30.2in /  1022.4hPa Calm     97% 0in /  0.0mm 0 W/m2
07:36 46 °F /  7.8 °C 45.3 °F /  7.4 °C 30.2in /  1022.4hPa Calm     97% 0in /  0.0mm 0 W/m2
07:41 46 °F /  7.8 °C 45.3 °F /  7.4 °C 30.2in /  1022.4hPa Calm     97% 0in /  0.0mm 0 W/m2
07:46 46 °F /  7.8 °C 45.3 °F /  7.4 °C 30.2in /  1022.7hPa Calm     97% 0in /  0.0mm 5 W/m2
07:51 46 °F /  7.8 °C 45.3 °F /  7.4 °C 30.2in /  1022.4hPa Calm     97% 0in /  0.0mm 9 W/m2
07:56 46.2 °F /  7.9 °C 45.5 °F /  7.5 °C 30.2in /  1022.7hPa Calm     97% 0in /  0.0mm 12 W/m2
08:01 46.2 °F /  7.9 °C 45.5 °F /  7.5 °C 30.2in /  1022.7hPa Calm     97% 0in /  0.0mm 18 W/m2
08:06 46.6 °F /  8.1 °C 45.9 °F /  7.7 °C 30.2in /  1022.7hPa Calm   1mph /  1.6km/h 97% 0in /  0.0mm 18 W/m2
08:11 46.8 °F /  8.2 °C 46 °F /  7.8 °C 30.2in /  1022.7hPa Calm     97% 0in /  0.0mm 23 W/m2
08:16 46.9 °F /  8.3 °C 46.2 °F /  7.9 °C 30.2in /  1022.7hPa Calm   1mph /  1.6km/h 97% 0in /  0.0mm 32 W/m2
08:21 46.9 °F /  8.3 °C 46.2 °F /  7.9 °C 30.2in /  1022.7hPa Calm     97% 0in /  0.0mm 35 W/m2
08:26 47.1 °F /  8.4 °C 46.4 °F /  8 °C 30.2in /  1022.7hPa Calm     97% 0in /  0.0mm 30 W/m2
08:31 47.5 °F /  8.6 °C 46.8 °F /  8.2 °C 30.2in /  1023.0hPa Calm     97% 0in /  0.0mm 26 W/m2
08:36 47.7 °F /  8.7 °C 46.9 °F /  8.3 °C 30.2in /  1023.0hPa Calm     97% 0in /  0.0mm 26 W/m2
08:41 47.8 °F /  8.8 °C 46.9 °F /  8.3 °C 30.2in /  1023.0hPa Calm     97% 0in /  0.0mm 33 W/m2
08:46 47.8 °F /  8.8 °C 46.9 °F /  8.3 °C 30.2in /  1023.0hPa Calm     97% 0in /  0.0mm 51 W/m2
08:51 48 °F /  8.9 °C 47.5 °F /  8.6 °C 30.2in /  1023.0hPa Calm     98% 0in /  0.0mm 70 W/m2
08:56 48 °F /  8.9 °C 47.1 °F /  8.4 °C 30.2in /  1023.0hPa Calm     97% 0in /  0.0mm 86 W/m2
09:01 48.4 °F /  9.1 °C 47.5 °F /  8.6 °C 30.2in /  1023.0hPa Calm     97% 0in /  0.0mm 76 W/m2
09:06 48.7 °F /  9.3 °C 48.2 °F /  9 °C 30.2in /  1023.0hPa Calm     98% 0in /  0.0mm 70 W/m2
09:11 48.9 °F /  9.4 °C 48 °F /  8.9 °C 30.2in /  1023.0hPa Calm     97% 0in /  0.0mm 74 W/m2
09:16 49.1 °F /  9.5 °C 48.6 °F /  9.2 °C 30.2in /  1023.0hPa Calm     98% 0in /  0.0mm 72 W/m2
09:21 49.5 °F /  9.7 °C 48.9 °F /  9.4 °C 30.2in /  1023.0hPa Calm     98% 0in /  0.0mm 77 W/m2
09:26 49.5 °F /  9.7 °C 48.6 °F /  9.2 °C 30.2in /  1023.0hPa ENE 2mph /  3.2km/h 2mph /  3.2km/h 97% 0in /  0.0mm 84 W/m2
09:31 49.6 °F /  9.8 °C 48.7 °F /  9.3 °C 30.2in /  1023.0hPa Calm     97% 0in /  0.0mm 90 W/m2
09:36 49.6 °F /  9.8 °C 48.7 °F /  9.3 °C 30.2in /  1023.0hPa ENE 0.9mph /  1.4km/h 2mph /  3.2km/h 97% 0in /  0.0mm 97 W/m2
09:41 49.8 °F /  9.9 °C 49.3 °F /  9.6 °C 30.2in /  1023.0hPa SSE 0.9mph /  1.4km/h 1mph /  1.6km/h 98% 0in /  0.0mm 93 W/m2
09:46 49.8 °F /  9.9 °C 49.3 °F /  9.6 °C 30.2in /  1023.0hPa Calm   1mph /  1.6km/h 98% 0in /  0.0mm 86 W/m2
09:51 50 °F /  10 °C 49.5 °F /  9.7 °C 30.2in /  1023.0hPa Calm     98% 0in /  0.0mm 86 W/m2
09:56 50 °F /  10 °C 49.5 °F /  9.7 °C 30.2in /  1023.0hPa ESE 0.9mph /  1.4km/h 2mph /  3.2km/h 98% 0in /  0.0mm 84 W/m2
10:01 50 °F /  10 °C 49.5 °F /  9.7 °C 30.2in /  1023.0hPa ESE 0.9mph /  1.4km/h 1mph /  1.6km/h 98% 0in /  0.0mm 83 W/m2
10:06 50 °F /  10 °C 49.1 °F /  9.5 °C 30.2in /  1023.0hPa Calm   1mph /  1.6km/h 97% 0in /  0.0mm 86 W/m2
10:11 50.2 °F /  10.1 °C 49.3 °F /  9.6 °C 30.2in /  1023.0hPa Calm     97% 0in /  0.0mm 127 W/m2
10:16 50.2 °F /  10.1 °C 49.3 °F /  9.6 °C 30.2in /  1023.0hPa Calm     97% 0in /  0.0mm 146 W/m2
10:21 50.4 °F /  10.2 °C 49.8 °F /  9.9 °C 30.2in /  1023.0hPa NNW 2mph /  3.2km/h 2mph /  3.2km/h 98% 0in /  0.0mm 118 W/m2
10:26 50.4 °F /  10.2 °C 49.5 °F /  9.7 °C 30.2in /  1023.0hPa Calm     97% 0in /  0.0mm 128 W/m2
10:31 50.5 °F /  10.3 °C 49.6 °F /  9.8 °C 30.2in /  1023.0hPa Calm   2mph /  3.2km/h 97% 0in /  0.0mm 114 W/m2
10:36 50.5 °F /  10.3 °C 49.6 °F /  9.8 °C 30.2in /  1023.0hPa Calm   1mph /  1.6km/h 97% 0in /  0.0mm 84 W/m2
10:41 50.5 °F /  10.3 °C 49.6 °F /  9.8 °C 30.2in /  1023.0hPa Calm   1mph /  1.6km/h 97% 0in /  0.0mm 76 W/m2
10:46 50.7 °F /  10.4 °C 49.8 °F /  9.9 °C 30.2in /  1023.0hPa Calm     97% 0in /  0.0mm 91 W/m2
10:51 50.7 °F /  10.4 °C 49.8 °F /  9.9 °C 30.2in /  1023.0hPa NE 0.9mph /  1.4km/h 2mph /  3.2km/h 97% 0in /  0.0mm 97 W/m2
10:56 50.9 °F /  10.5 °C 50 °F /  10 °C 30.2in /  1023.0hPa NE 0.9mph /  1.4km/h 2mph /  3.2km/h 97% 0in /  0.0mm 98 W/m2
11:01 51.1 °F /  10.6 °C 50.2 °F /  10.1 °C 30.2in /  1023.0hPa ENE 2mph /  3.2km/h 3mph /  4.8km/h 97% 0in /  0.0mm 102 W/m2
11:06 51.3 °F /  10.7 °C 50.4 °F /  10.2 °C 30.2in /  1023.0hPa Calm   2mph /  3.2km/h 97% 0in /  0.0mm 111 W/m2
11:11 51.3 °F /  10.7 °C 50.4 °F /  10.2 °C 30.2in /  1023.0hPa Calm   3mph /  4.8km/h 97% 0in /  0.0mm 113 W/m2
11:16 51.4 °F /  10.8 °C 50.5 °F /  10.3 °C 30.2in /  1023.0hPa Calm   1mph /  1.6km/h 97% 0in /  0.0mm 123 W/m2
11:21 51.6 °F /  10.9 °C 50.5 °F /  10.3 °C 30.2in /  1023.0hPa ENE 0.9mph /  1.4km/h 2mph /  3.2km/h 96% 0in /  0.0mm 141 W/m2
11:26 52 °F /  11.1 °C 50.9 °F /  10.5 °C 30.2in /  1023.0hPa ESE 0.9mph /  1.4km/h 2mph /  3.2km/h 96% 0in /  0.0mm 156 W/m2
11:31 52.2 °F /  11.2 °C 51.1 °F /  10.6 °C 30.2in /  1023.0hPa Calm   1mph /  1.6km/h 96% 0in /  0.0mm 209 W/m2
11:36 52.5 °F /  11.4 °C 51.4 °F /  10.8 °C 30.2in /  1023.0hPa NNW 0.9mph /  1.4km/h 1mph /  1.6km/h 96% 0in /  0.0mm 195 W/m2
11:41 53.1 °F /  11.7 °C 51.6 °F /  10.9 °C 30.2in /  1023.0hPa NNE 0.9mph /  1.4km/h 3mph /  4.8km/h 95% 0in /  0.0mm 125 W/m2
11:46 53.2 °F /  11.8 °C 51.6 °F /  10.9 °C 30.2in /  1022.7hPa NE 2mph /  3.2km/h 2mph /  3.2km/h 94% 0in /  0.0mm 146 W/m2
11:51 53.8 °F /  12.1 °C 51.8 °F /  11 °C 30.2in /  1022.7hPa NNE 0.9mph /  1.4km/h 2mph /  3.2km/h 93% 0in /  0.0mm 102 W/m2
11:56 54 °F /  12.2 °C 51.4 °F /  10.8 °C 30.2in /  1022.7hPa NE 0.9mph /  1.4km/h 3mph /  4.8km/h 91% 0in /  0.0mm 84 W/m2
12:01 54.1 °F /  12.3 °C 51.3 °F /  10.7 °C 30.2in /  1022.7hPa NE 0.9mph /  1.4km/h 3mph /  4.8km/h 90% 0in /  0.0mm 49 W/m2
12:06 54.5 °F /  12.5 °C 51.3 °F /  10.7 °C 30.2in /  1022.7hPa Calm   2mph /  3.2km/h 89% 0in /  0.0mm 56 W/m2
12:12 54.7 °F /  12.6 °C 51.4 °F /  10.8 °C 30.2in /  1022.4hPa NE 2.9mph /  4.7km/h 3mph /  4.8km/h 89% 0in /  0.0mm 53 W/m2
12:17 54.9 °F /  12.7 °C 51.4 °F /  10.8 °C 30.2in /  1022.4hPa Calm   2mph /  3.2km/h 88% 0in /  0.0mm 53 W/m2
12:22 55 °F /  12.8 °C 51.3 °F /  10.7 °C 30.2in /  1022.4hPa Calm   3mph /  4.8km/h 87% 0in /  0.0mm 42 W/m2
12:27 55.2 °F /  12.9 °C 51.4 °F /  10.8 °C 30.2in /  1022.4hPa East 0.9mph /  1.4km/h 3mph /  4.8km/h 87% 0in /  0.0mm 58 W/m2
12:32 55.6 °F /  13.1 °C 51.4 °F /  10.8 °C 30.2in /  1022.4hPa ENE 0.9mph /  1.4km/h 6mph /  9.7km/h 86% 0in /  0.0mm 39 W/m2
12:37 55.8 °F /  13.2 °C 51.6 °F /  10.9 °C 30.2in /  1022.4hPa North 0.9mph /  1.4km/h 3mph /  4.8km/h 86% 0in /  0.0mm 42 W/m2
12:42 55.9 °F /  13.3 °C 51.8 °F /  11 °C 30.2in /  1022.4hPa NE 0.9mph /  1.4km/h 1mph /  1.6km/h 86% 0in /  0.0mm 44 W/m2
12:47 55.9 °F /  13.3 °C 51.4 °F /  10.8 °C 30.2in /  1022.4hPa Calm   2mph /  3.2km/h 85% 0in /  0.0mm 51 W/m2
12:52 55.9 °F /  13.3 °C 51.8 °F /  11 °C 30.2in /  1022.4hPa Calm   2mph /  3.2km/h 86% 0in /  0.0mm 60 W/m2
12:57 56.1 °F /  13.4 °C 51.6 °F /  10.9 °C 30.2in /  1022.4hPa ENE 0.9mph /  1.4km/h 3mph /  4.8km/h 85% 0in /  0.0mm 72 W/m2
13:02 56.3 °F /  13.5 °C 51.8 °F /  11 °C 30.2in /  1022.0hPa East 0.9mph /  1.4km/h 2mph /  3.2km/h 85% 0in /  0.0mm 90 W/m2
13:07 56.5 °F /  13.6 °C 52 °F /  11.1 °C 30.2in /  1022.0hPa East 0.9mph /  1.4km/h 2mph /  3.2km/h 85% 0in /  0.0mm 116 W/m2
13:12 56.7 °F /  13.7 °C 52.2 °F /  11.2 °C 30.2in /  1022.0hPa Calm   1mph /  1.6km/h 85% 0in /  0.0mm 137 W/m2
13:17 56.8 °F /  13.8 °C 52.3 °F /  11.3 °C 30.2in /  1022.0hPa Calm   2mph /  3.2km/h 85% 0in /  0.0mm 130 W/m2
13:22 57 °F /  13.9 °C 52.5 °F /  11.4 °C 30.2in /  1022.0hPa East 2mph /  3.2km/h 4mph /  6.4km/h 85% 0in /  0.0mm 132 W/m2
13:27 57.6 °F /  14.2 °C 52.7 °F /  11.5 °C 30.2in /  1022.0hPa East 0.9mph /  1.4km/h 1mph /  1.6km/h 84% 0in /  0.0mm 148 W/m2
13:32 57.9 °F /  14.4 °C 52.7 °F /  11.5 °C 30.2in /  1022.0hPa ENE 2mph /  3.2km/h 3mph /  4.8km/h 83% 0in /  0.0mm 132 W/m2
13:37 58.3 °F /  14.6 °C 53.1 °F /  11.7 °C 30.2in /  1022.0hPa Calm   1mph /  1.6km/h 83% 0in /  0.0mm 134 W/m2
13:42 58.5 °F /  14.7 °C 53.1 °F /  11.7 °C 30.2in /  1022.0hPa Calm   2mph /  3.2km/h 82% 0in /  0.0mm 146 W/m2
13:47 58.6 °F /  14.8 °C 53.2 °F /  11.8 °C 30.2in /  1022.0hPa Calm   4mph /  6.4km/h 82% 0in /  0.0mm 155 W/m2
13:52 58.8 °F /  14.9 °C 53.4 °F /  11.9 °C 30.2in /  1021.7hPa Calm   1mph /  1.6km/h 82% 0in /  0.0mm 165 W/m2
13:57 59 °F /  15 °C 53.6 °F /  12 °C 30.2in /  1021.7hPa ESE 0.9mph /  1.4km/h 2mph /  3.2km/h 82% 0in /  0.0mm 176 W/m2
14:02 59.4 °F /  15.2 °C 53.6 °F /  12 °C 30.2in /  1021.7hPa ESE 0.9mph /  1.4km/h 3mph /  4.8km/h 81% 0in /  0.0mm 172 W/m2
14:07 59.5 °F /  15.3 °C 53.8 °F /  12.1 °C 30.2in /  1021.7hPa NE 0.9mph /  1.4km/h 2mph /  3.2km/h 81% 0in /  0.0mm 155 W/m2
14:12 59.5 °F /  15.3 °C 53.8 °F /  12.1 °C 30.2in /  1021.7hPa Calm   3mph /  4.8km/h 81% 0in /  0.0mm 144 W/m2
14:17 59.7 °F /  15.4 °C 53.6 °F /  12 °C 30.2in /  1021.7hPa East 0.9mph /  1.4km/h 3mph /  4.8km/h 80% 0in /  0.0mm 139 W/m2
14:22 59.7 °F /  15.4 °C 54 °F /  12.2 °C 30.2in /  1021.7hPa Calm   1mph /  1.6km/h 81% 0in /  0.0mm 130 W/m2
14:27 59.7 °F /  15.4 °C 54 °F /  12.2 °C 30.2in /  1021.7hPa ENE 0.9mph /  1.4km/h 3mph /  4.8km/h 81% 0in /  0.0mm 130 W/m2
14:32 59.9 °F /  15.5 °C 54.1 °F /  12.3 °C 30.2in /  1021.7hPa Calm   2mph /  3.2km/h 81% 0in /  0.0mm 130 W/m2
14:37 60.1 °F /  15.6 °C 54 °F /  12.2 °C 30.2in /  1021.7hPa Calm   2mph /  3.2km/h 80% 0in /  0.0mm 120 W/m2
14:42 60.1 °F /  15.6 °C 54 °F /  12.2 °C 30.2in /  1021.7hPa Calm   1mph /  1.6km/h 80% 0in /  0.0mm 116 W/m2
14:47 60.3 °F /  15.7 °C 54.3 °F /  12.4 °C 30.2in /  1021.7hPa East 0.9mph /  1.4km/h 2mph /  3.2km/h 81% 0in /  0.0mm 109 W/m2
14:52 60.3 °F /  15.7 °C 54.1 °F /  12.3 °C 30.2in /  1021.7hPa Calm     80% 0in /  0.0mm 102 W/m2
14:57 60.3 °F /  15.7 °C 54.1 °F /  12.3 °C 30.2in /  1021.7hPa East 0.9mph /  1.4km/h 1mph /  1.6km/h 80% 0in /  0.0mm 93 W/m2
15:02 60.3 °F /  15.7 °C 53.8 °F /  12.1 °C 30.2in /  1021.7hPa Calm   1mph /  1.6km/h 79% 0in /  0.0mm 86 W/m2
15:07 60.3 °F /  15.7 °C 54.1 °F /  12.3 °C 30.2in /  1021.7hPa Calm   1mph /  1.6km/h 80% 0in /  0.0mm 76 W/m2
15:12 60.3 °F /  15.7 °C 54.1 °F /  12.3 °C 30.2in /  1021.7hPa Calm   1mph /  1.6km/h 80% 0in /  0.0mm 74 W/m2
15:17 60.3 °F /  15.7 °C 53.8 °F /  12.1 °C 30.2in /  1021.7hPa Calm     79% 0in /  0.0mm 69 W/m2
15:22 60.1 °F /  15.6 °C 54 °F /  12.2 °C 30.2in /  1021.7hPa Calm     80% 0in /  0.0mm 67 W/m2
15:27 60.1 °F /  15.6 °C 54.3 °F /  12.4 °C 30.2in /  1021.7hPa Calm     81% 0in /  0.0mm 63 W/m2
15:32 60.1 °F /  15.6 °C 54.3 °F /  12.4 °C 30.2in /  1021.7hPa Calm     81% 0in /  0.0mm 58 W/m2
15:37 60.1 °F /  15.6 °C 54.5 °F /  12.5 °C 30.2in /  1021.7hPa Calm     82% 0in /  0.0mm 54 W/m2
15:42 59.7 °F /  15.4 °C 54.1 °F /  12.3 °C 30.2in /  1021.7hPa Calm     82% 0in /  0.0mm 47 W/m2
15:47 59.7 °F /  15.4 °C 54.1 °F /  12.3 °C 30.2in /  1021.7hPa Calm     82% 0in /  0.0mm 42 W/m2
15:52 59.5 °F /  15.3 °C 54 °F /  12.2 °C 30.2in /  1021.7hPa Calm     82% 0in /  0.0mm 37 W/m2
15:57 59.5 °F /  15.3 °C 54.3 °F /  12.4 °C 30.2in /  1021.7hPa Calm     83% 0in /  0.0mm 33 W/m2
16:02 59.5 °F /  15.3 °C 54.3 °F /  12.4 °C 30.2in /  1021.7hPa Calm     83% 0in /  0.0mm 30 W/m2
16:07 59.4 °F /  15.2 °C 54.5 °F /  12.5 °C 30.2in /  1021.7hPa Calm     84% 0in /  0.0mm 28 W/m2
16:12 59.2 °F /  15.1 °C 54.3 °F /  12.4 °C 30.2in /  1021.7hPa Calm     84% 0in /  0.0mm 25 W/m2
16:17 59.2 °F /  15.1 °C 54.3 °F /  12.4 °C 30.2in /  1021.7hPa Calm     84% 0in /  0.0mm 21 W/m2
16:22 58.8 °F /  14.9 °C 54 °F /  12.2 °C 30.2in /  1021.7hPa Calm     84% 0in /  0.0mm 18 W/m2
16:27 58.6 °F /  14.8 °C 54.1 °F /  12.3 °C 30.2in /  1021.7hPa Calm     85% 0in /  0.0mm 14 W/m2
16:32 58.6 °F /  14.8 °C 54.1 °F /  12.3 °C 30.2in /  1022.0hPa Calm     85% 0in /  0.0mm 12 W/m2
16:37 58.5 °F /  14.7 °C 54 °F /  12.2 °C 30.2in /  1022.0hPa Calm     85% 0in /  0.0mm 12 W/m2
16:42 58.3 °F /  14.6 °C 53.8 °F /  12.1 °C 30.2in /  1022.0hPa Calm     85% 0in /  0.0mm 11 W/m2
16:47 58.1 °F /  14.5 °C 53.6 °F /  12 °C 30.2in /  1021.7hPa Calm     85% 0in /  0.0mm 9 W/m2
16:52 57.9 °F /  14.4 °C 53.8 °F /  12.1 °C 30.2in /  1021.7hPa Calm     86% 0in /  0.0mm 5 W/m2
16:57 57.7 °F /  14.3 °C 53.6 °F /  12 °C 30.2in /  1021.7hPa Calm     86% 0in /  0.0mm 0 W/m2
17:02 57.6 °F /  14.2 °C 53.4 °F /  11.9 °C 30.2in /  1022.0hPa Calm     86% 0in /  0.0mm 0 W/m2
17:07 57.6 °F /  14.2 °C 53.4 °F /  11.9 °C 30.2in /  1022.0hPa Calm     86% 0in /  0.0mm 0 W/m2
17:13 57.4 °F /  14.1 °C 53.6 °F /  12 °C 30.2in /  1022.0hPa Calm     87% 0in /  0.0mm 0 W/m2
17:16 57.2 °F /  14 °C 53.4 °F /  11.9 °C 30.2in /  1022.0hPa Calm     87% 0in /  0.0mm 0 W/m2
17:21 57 °F /  13.9 °C 53.2 °F /  11.8 °C 30.2in /  1022.0hPa Calm     87% 0in /  0.0mm 0 W/m2
17:26 56.8 °F /  13.8 °C 53.1 °F /  11.7 °C 30.2in /  1022.0hPa Calm     87% 0in /  0.0mm 0 W/m2
17:31 56.7 °F /  13.7 °C 53.1 °F /  11.7 °C 30.2in /  1022.0hPa Calm     88% 0in /  0.0mm 0 W/m2
17:36 56.7 °F /  13.7 °C 53.1 °F /  11.7 °C 30.2in /  1022.0hPa Calm     88% 0in /  0.0mm 0 W/m2
17:41 56.5 °F /  13.6 °C 52.9 °F /  11.6 °C 30.2in /  1022.0hPa Calm     88% 0in /  0.0mm 0 W/m2
17:46 56.3 °F /  13.5 °C 52.9 °F /  11.6 °C 30.2in /  1022.0hPa Calm     88% 0in /  0.0mm 0 W/m2
17:51 56.1 °F /  13.4 °C 52.9 °F /  11.6 °C 30.2in /  1022.4hPa Calm     89% 0in /  0.0mm 0 W/m2
17:56 55.9 °F /  13.3 °C 52.7 °F /  11.5 °C 30.2in /  1022.4hPa Calm     89% 0in /  0.0mm 0 W/m2
18:02 55.9 °F /  13.3 °C 52.7 °F /  11.5 °C 30.2in /  1022.4hPa Calm     89% 0in /  0.0mm 0 W/m2
18:07 55.8 °F /  13.2 °C 52.5 °F /  11.4 °C 30.2in /  1022.4hPa Calm     89% 0in /  0.0mm 0 W/m2
18:12 55.8 °F /  13.2 °C 52.9 °F /  11.6 °C 30.2in /  1022.4hPa Calm     90% 0in /  0.0mm 0 W/m2
18:17 55.6 °F /  13.1 °C 52.7 °F /  11.5 °C 30.2in /  1022.4hPa Calm     90% 0in /  0.0mm 0 W/m2
18:22 55.6 °F /  13.1 °C 52.7 °F /  11.5 °C 30.2in /  1022.4hPa Calm     90% 0in /  0.0mm 0 W/m2
18:27 55.2 °F /  12.9 °C 52.3 °F /  11.3 °C 30.2in /  1022.4hPa Calm     90% 0in /  0.0mm 0 W/m2
18:32 55.2 °F /  12.9 °C 52.3 °F /  11.3 °C 30.2in /  1022.4hPa Calm     90% 0in /  0.0mm 0 W/m2
18:37 55 °F /  12.8 °C 52.2 °F /  11.2 °C 30.2in /  1022.4hPa Calm     90% 0in /  0.0mm 0 W/m2
18:42 54.9 °F /  12.7 °C 52 °F /  11.1 °C 30.2in /  1022.4hPa Calm     90% 0in /  0.0mm 0 W/m2
18:47 54.7 °F /  12.6 °C 51.8 °F /  11 °C 30.2in /  1022.4hPa Calm     90% 0in /  0.0mm 0 W/m2
18:52 54.3 °F /  12.4 °C 51.4 °F /  10.8 °C 30.2in /  1022.4hPa Calm   1mph /  1.6km/h 90% 0in /  0.0mm 0 W/m2
18:57 54.1 °F /  12.3 °C 51.3 °F /  10.7 °C 30.2in /  1022.4hPa Calm   1mph /  1.6km/h 90% 0in /  0.0mm 0 W/m2
19:02 53.8 °F /  12.1 °C 51.3 °F /  10.7 °C 30.2in /  1022.4hPa Calm     91% 0in /  0.0mm 0 W/m2
19:07 53.6 °F /  12 °C 51.1 °F /  10.6 °C 30.2in /  1022.4hPa Calm     91% 0in /  0.0mm 0 W/m2
19:12 53.2 °F /  11.8 °C 50.7 °F /  10.4 °C 30.2in /  1022.4hPa Calm     91% 0in /  0.0mm 0 W/m2
19:17 53.1 °F /  11.7 °C 50.5 °F /  10.3 °C 30.2in /  1022.7hPa Calm     91% 0in /  0.0mm 0 W/m2
19:22 52.9 °F /  11.6 °C 50.5 °F /  10.3 °C 30.2in /  1022.7hPa Calm     92% 0in /  0.0mm 0 W/m2
19:27 52.7 °F /  11.5 °C 50.4 °F /  10.2 °C 30.2in /  1022.7hPa Calm     92% 0in /  0.0mm 0 W/m2
19:32 52.5 °F /  11.4 °C 50.2 °F /  10.1 °C 30.2in /  1022.7hPa Calm     92% 0in /  0.0mm 0 W/m2
19:37 52.3 °F /  11.3 °C 50.4 °F /  10.2 °C 30.2in /  1022.7hPa Calm     93% 0in /  0.0mm 0 W/m2
19:42 52.3 °F /  11.3 °C 50.4 °F /  10.2 °C 30.2in /  1022.7hPa Calm     93% 0in /  0.0mm 0 W/m2
19:47 52.2 °F /  11.2 °C 50.2 °F /  10.1 °C 30.2in /  1022.7hPa Calm     93% 0in /  0.0mm 0 W/m2
19:52 51.8 °F /  11 °C 49.8 °F /  9.9 °C 30.2in /  1022.7hPa Calm     93% 0in /  0.0mm 0 W/m2
19:57 51.8 °F /  11 °C 49.8 °F /  9.9 °C 30.2in /  1022.7hPa Calm     93% 0in /  0.0mm 0 W/m2
20:02 51.8 °F /  11 °C 50.2 °F /  10.1 °C 30.2in /  1022.7hPa Calm     94% 0in /  0.0mm 0 W/m2
20:07 51.6 °F /  10.9 °C 50 °F /  10 °C 30.2in /  1022.7hPa Calm     94% 0in /  0.0mm 0 W/m2
20:12 51.4 °F /  10.8 °C 49.8 °F /  9.9 °C 30.2in /  1022.7hPa Calm     94% 0in /  0.0mm 0 W/m2
20:17 51.3 °F /  10.7 °C 49.6 °F /  9.8 °C 30.2in /  1022.7hPa Calm     94% 0in /  0.0mm 0 W/m2
20:22 51.1 °F /  10.6 °C 49.5 °F /  9.7 °C 30.2in /  1022.7hPa Calm     94% 0in /  0.0mm 0 W/m2
20:27 50.9 °F /  10.5 °C 49.3 °F /  9.6 °C 30.2in /  1023.0hPa Calm     94% 0in /  0.0mm 0 W/m2
20:32 50.7 °F /  10.4 °C 49.1 °F /  9.5 °C 30.2in /  1022.7hPa Calm     94% 0in /  0.0mm 0 W/m2
20:37 50.7 °F /  10.4 °C 49.3 °F /  9.6 °C 30.2in /  1022.7hPa Calm     95% 0in /  0.0mm 0 W/m2
20:42 50.7 °F /  10.4 °C 49.3 °F /  9.6 °C 30.2in /  1023.0hPa Calm     95% 0in /  0.0mm 0 W/m2
20:47 50.5 °F /  10.3 °C 49.1 °F /  9.5 °C 30.2in /  1023.0hPa Calm     95% 0in /  0.0mm 0 W/m2
20:52 50.4 °F /  10.2 °C 48.7 °F /  9.3 °C 30.2in /  1023.0hPa Calm     94% 0in /  0.0mm 0 W/m2
20:57 50.2 °F /  10.1 °C 48.6 °F /  9.2 °C 30.2in /  1023.0hPa Calm     94% 0in /  0.0mm 0 W/m2
21:02 50.2 °F /  10.1 °C 48.7 °F /  9.3 °C 30.2in /  1022.7hPa Calm     95% 0in /  0.0mm 0 W/m2
21:07 50.2 °F /  10.1 °C 48.7 °F /  9.3 °C 30.2in /  1023.0hPa Calm     95% 0in /  0.0mm 0 W/m2
21:12 49.8 °F /  9.9 °C 48.2 °F /  9 °C 30.2in /  1022.7hPa Calm     94% 0in /  0.0mm 0 W/m2
21:17 49.6 °F /  9.8 °C 48 °F /  8.9 °C 30.2in /  1022.7hPa Calm     94% 0in /  0.0mm 0 W/m2
21:22 49.5 °F /  9.7 °C 48 °F /  8.9 °C 30.2in /  1022.7hPa Calm     95% 0in /  0.0mm 0 W/m2
21:27 49.3 °F /  9.6 °C 47.8 °F /  8.8 °C 30.2in /  1023.0hPa Calm     95% 0in /  0.0mm 0 W/m2
21:32 49.3 °F /  9.6 °C 47.8 °F /  8.8 °C 30.2in /  1022.7hPa Calm     95% 0in /  0.0mm 0 W/m2
21:37 49.3 °F /  9.6 °C 47.8 °F /  8.8 °C 30.2in /  1023.0hPa Calm     95% 0in /  0.0mm 0 W/m2
21:42 49.1 °F /  9.5 °C 47.7 °F /  8.7 °C 30.2in /  1023.0hPa Calm     95% 0in /  0.0mm 0 W/m2
21:47 48.9 °F /  9.4 °C 47.5 °F /  8.6 °C 30.2in /  1023.0hPa Calm     95% 0in /  0.0mm 0 W/m2
21:52 48.7 °F /  9.3 °C 47.3 °F /  8.5 °C 30.2in /  1023.0hPa Calm     95% 0in /  0.0mm 0 W/m2
21:57 48.6 °F /  9.2 °C 47.1 °F /  8.4 °C 30.2in /  1023.0hPa Calm     95% 0in /  0.0mm 0 W/m2
22:02 48.4 °F /  9.1 °C 46.9 °F /  8.3 °C 30.2in /  1023.4hPa Calm     95% 0in /  0.0mm 0 W/m2
22:07 48.2 °F /  9 °C 46.8 °F /  8.2 °C 30.2in /  1023.4hPa Calm     95% 0in /  0.0mm 0 W/m2
22:12 48 °F /  8.9 °C 46.6 °F /  8.1 °C 30.2in /  1023.4hPa Calm     95% 0in /  0.0mm 0 W/m2
22:17 48 °F /  8.9 °C 46.6 °F /  8.1 °C 30.2in /  1023.0hPa Calm     95% 0in /  0.0mm 0 W/m2
22:22 48 °F /  8.9 °C 46.6 °F /  8.1 °C 30.2in /  1023.4hPa Calm     95% 0in /  0.0mm 0 W/m2
22:27 48 °F /  8.9 °C 46.6 °F /  8.1 °C 30.2in /  1023.4hPa Calm     95% 0in /  0.0mm 0 W/m2
22:32 47.8 °F /  8.8 °C 46.4 °F /  8 °C 30.2in /  1023.4hPa Calm     95% 0in /  0.0mm 0 W/m2
22:37 47.7 °F /  8.7 °C 46.2 °F /  7.9 °C 30.2in /  1023.4hPa Calm     95% 0in /  0.0mm 0 W/m2
22:42 47.8 °F /  8.8 °C 46.8 °F /  8.2 °C 30.2in /  1023.0hPa Calm     96% 0in /  0.0mm 0 W/m2
22:47 47.8 °F /  8.8 °C 46.8 °F /  8.2 °C 30.2in /  1023.0hPa Calm     96% 0in /  0.0mm 0 W/m2
22:52 47.7 °F /  8.7 °C 46.6 °F /  8.1 °C 30.2in /  1023.0hPa Calm     96% 0in /  0.0mm 0 W/m2
22:57 47.7 °F /  8.7 °C 46.6 °F /  8.1 °C 30.2in /  1023.4hPa Calm     96% 0in /  0.0mm 0 W/m2
23:02 47.7 °F /  8.7 °C 46.6 °F /  8.1 °C 30.2in /  1023.4hPa Calm     96% 0in /  0.0mm 0 W/m2
23:07 47.5 °F /  8.6 °C 46.4 °F /  8 °C 30.2in /  1023.4hPa Calm     96% 0in /  0.0mm 0 W/m2
23:12 47.5 °F /  8.6 °C 46.4 °F /  8 °C 30.2in /  1023.4hPa Calm     96% 0in /  0.0mm 0 W/m2
23:17 47.3 °F /  8.5 °C 46.2 °F /  7.9 °C 30.2in /  1023.4hPa Calm     96% 0in /  0.0mm 0 W/m2
23:22 47.1 °F /  8.4 °C 46 °F /  7.8 °C 30.2in /  1023.4hPa Calm     96% 0in /  0.0mm 0 W/m2
23:27 46.9 °F /  8.3 °C 45.9 °F /  7.7 °C 30.2in /  1023.4hPa Calm     96% 0in /  0.0mm 0 W/m2
23:32 46.9 °F /  8.3 °C 45.9 °F /  7.7 °C 30.2in /  1023.4hPa Calm     96% 0in /  0.0mm 0 W/m2
23:37 46.9 °F /  8.3 °C 45.9 °F /  7.7 °C 30.2in /  1023.4hPa Calm     96% 0in /  0.0mm 0 W/m2
23:42 46.8 °F /  8.2 °C 45.7 °F /  7.6 °C 30.2in /  1023.4hPa Calm     96% 0in /  0.0mm 0 W/m2
23:47 46.8 °F /  8.2 °C 45.7 °F /  7.6 °C 30.2in /  1023.4hPa Calm     96% 0in /  0.0mm 0 W/m2
23:52 46.6 °F /  8.1 °C 45.5 °F /  7.5 °C 30.2in /  1023.4hPa Calm     96% 0in /  0.0mm 0 W/m2
23:57 46.6 °F /  8.1 °C 45.5 °F /  7.5 °C 30.2in /  1023.4hPa Calm     96% 0in /  0.0mm 0 W/m2
Juneau County Weather
Compliments of Weather Underground - 4 mb